createdAt,value
2017-08-19T10:46:43.160Z,66.70
2017-08-19T10:49:10.704Z,70.20
2017-08-19T10:51:38.763Z,71.10
2017-08-19T10:54:06.302Z,68.80
2017-08-19T10:56:33.990Z,71.30
2017-08-19T10:59:01.515Z,70.60
2017-08-19T11:01:29.058Z,72.60
2017-08-19T11:03:56.591Z,72.50
2017-08-19T11:06:24.154Z,69.40
2017-08-19T11:08:51.806Z,65.20
2017-08-19T11:11:19.357Z,73.40
2017-08-19T11:13:46.891Z,74.80
2017-08-19T11:16:14.430Z,79.70
2017-08-19T11:18:41.965Z,77.00
2017-08-19T11:21:09.502Z,72.10
2017-08-19T11:23:37.031Z,69.50
2017-08-19T11:26:04.654Z,68.70
2017-08-19T11:28:32.182Z,69.70
2017-08-19T11:30:59.732Z,69.00
2017-08-19T11:33:27.268Z,67.30
2017-08-19T11:35:54.824Z,69.80
2017-08-19T11:38:22.355Z,80.40
2017-08-19T11:40:49.920Z,74.70
2017-08-19T11:43:17.459Z,75.10
2017-08-19T11:45:45.027Z,78.10
2017-08-19T11:48:12.581Z,79.70
2017-08-19T11:50:40.132Z,83.50
2017-08-19T11:53:07.668Z,80.50
2017-08-19T11:55:35.267Z,74.90
2017-08-19T11:58:02.806Z,79.40
2017-08-19T12:00:32.253Z,81.40
2017-08-19T12:02:59.806Z,81.70
2017-08-19T12:05:27.343Z,76.70
2017-08-19T12:07:54.909Z,81.70
2017-08-19T12:10:22.447Z,81.70
2017-08-19T12:12:49.999Z,74.80
2017-08-19T12:15:17.656Z,75.10
2017-08-19T12:17:45.214Z,73.80
2017-08-19T12:20:12.738Z,69.50
2017-08-19T12:22:41.056Z,65.20
2017-08-19T12:25:08.587Z,65.20
2017-08-19T12:27:36.147Z,65.30
2017-08-19T12:30:03.679Z,66.40
2017-08-19T12:32:31.222Z,64.20
2017-08-19T12:34:58.756Z,66.00
2017-08-19T12:37:26.319Z,69.10
2017-08-19T12:39:53.847Z,64.80
2017-08-19T12:42:21.394Z,66.60
2017-08-19T12:44:48.955Z,67.90
2017-08-19T12:47:16.494Z,62.20
2017-08-19T12:49:44.060Z,64.30
2017-08-19T12:52:11.586Z,67.50
2017-08-19T12:54:39.137Z,68.90
2017-08-19T12:57:06.672Z,75.50
2017-08-19T12:59:34.232Z,76.70
2017-08-19T13:02:01.779Z,77.20
2017-08-19T13:04:29.344Z,73.60
2017-08-19T13:06:57.671Z,73.70
2017-08-19T13:09:25.228Z,69.30
2017-08-19T13:11:52.762Z,64.10
2017-08-19T13:14:20.343Z,62.80
2017-08-19T13:16:47.873Z,64.50
2017-08-19T13:19:15.436Z,63.20
2017-08-19T13:21:42.971Z,60.80
2017-08-19T13:24:10.514Z,60.60
2017-08-19T13:26:38.056Z,64.10
2017-08-19T13:29:05.654Z,60.60
2017-08-19T13:31:33.215Z,60.90
2017-08-19T13:34:00.739Z,61.80
2017-08-19T13:36:28.288Z,60.50
2017-08-19T13:38:55.815Z,62.90
2017-08-19T13:41:23.379Z,61.80
2017-08-19T13:43:50.919Z,59.80
2017-08-19T13:46:18.462Z,65.30
2017-08-19T13:48:45.997Z,61.70
2017-08-19T13:51:13.548Z,62.40
2017-08-19T13:53:41.088Z,62.00
2017-08-19T13:56:08.644Z,66.00
2017-08-19T13:58:36.173Z,66.20
2017-08-19T14:01:03.723Z,66.30
2017-08-19T14:03:31.247Z,64.60
2017-08-19T14:05:58.791Z,65.30
2017-08-19T14:08:26.319Z,66.40
2017-08-19T14:10:53.876Z,67.10
2017-08-19T14:13:21.407Z,67.20
2017-08-19T14:15:48.976Z,68.50
2017-08-19T14:18:16.507Z,67.10
2017-08-19T14:20:44.064Z,69.00
2017-08-19T14:23:11.608Z,69.50
2017-08-19T14:25:39.171Z,70.40
2017-08-19T14:28:06.764Z,70.10
2017-08-19T14:30:34.295Z,68.70
2017-08-19T14:33:01.847Z,67.70
2017-08-19T14:35:29.374Z,69.90
2017-08-19T14:37:56.932Z,68.00
2017-08-19T14:40:24.457Z,69.50
2017-08-19T14:42:51.995Z,69.40
2017-08-19T14:45:19.512Z,69.00
2017-08-19T14:47:47.064Z,69.50
2017-08-19T14:50:14.592Z,68.50
2017-08-19T14:52:42.133Z,69.70
2017-08-19T14:55:09.672Z,67.80
2017-08-19T14:57:37.210Z,70.80
2017-08-19T15:00:04.740Z,68.90
2017-08-19T15:02:32.282Z,69.70
2017-08-19T15:04:59.808Z,70.20
2017-08-19T15:07:27.360Z,69.20
2017-08-19T15:09:54.887Z,69.40
2017-08-19T15:12:22.454Z,70.70
2017-08-19T15:14:49.974Z,70.40
2017-08-19T15:17:17.514Z,68.90
2017-08-19T15:19:45.053Z,67.90
2017-08-19T15:22:12.580Z,69.80
2017-08-19T15:24:40.132Z,71.70
2017-08-19T15:27:07.664Z,71.20
2017-08-19T15:29:35.221Z,69.30
2017-08-19T15:32:02.764Z,68.80
2017-08-19T15:34:30.324Z,71.30
2017-08-19T15:36:57.865Z,71.10
2017-08-19T15:39:25.424Z,70.40
2017-08-19T15:41:53.002Z,68.70
2017-08-19T15:44:20.569Z,70.30
2017-08-19T15:46:48.095Z,69.60
2017-08-19T15:49:15.652Z,71.20
2017-08-19T15:51:43.172Z,78.20
2017-08-19T15:54:10.730Z,71.30
2017-08-19T15:56:38.255Z,71.60
2017-08-19T15:59:05.805Z,70.50
2017-08-19T16:01:33.340Z,71.00
2017-08-19T16:04:00.892Z,70.80
2017-08-19T16:06:29.771Z,66.00
2017-08-19T16:08:57.356Z,66.40
2017-08-19T16:11:24.888Z,67.80
2017-08-19T16:13:52.415Z,68.30
2017-08-19T16:16:19.964Z,69.50
2017-08-19T16:18:47.479Z,70.50
2017-08-19T16:21:15.030Z,68.50
2017-08-19T16:23:42.557Z,70.10
2017-08-19T16:26:10.103Z,71.80
2017-08-19T16:28:37.657Z,71.80
2017-08-19T16:31:05.199Z,68.40
2017-08-19T16:33:32.732Z,70.80
2017-08-19T16:36:00.288Z,69.40
2017-08-19T16:38:27.814Z,70.70
2017-08-19T16:40:55.363Z,68.50
2017-08-19T16:43:22.884Z,69.90
2017-08-19T16:45:50.437Z,71.00
2017-08-19T16:48:17.966Z,72.00
2017-08-19T16:50:45.532Z,71.40
2017-08-19T16:53:13.064Z,71.90
2017-08-19T16:55:40.582Z,72.90
2017-08-19T16:58:08.123Z,72.20
2017-08-19T17:00:35.719Z,72.40
2017-08-19T17:03:03.266Z,74.20
2017-08-19T17:05:30.794Z,73.90
2017-08-19T17:07:58.348Z,70.60
2017-08-19T17:10:25.880Z,74.40
2017-08-19T17:12:53.422Z,73.40
2017-08-19T17:15:20.959Z,73.20
2017-08-19T17:17:48.520Z,72.00
2017-08-19T17:20:16.062Z,76.60
2017-08-19T17:22:43.640Z,74.40
2017-08-19T17:25:11.178Z,74.40
2017-08-19T17:27:38.728Z,76.30
2017-08-19T17:30:06.246Z,76.10
2017-08-19T17:32:33.787Z,77.20
2017-08-19T17:35:01.320Z,77.50
2017-08-19T17:37:28.889Z,76.40
2017-08-19T17:39:56.424Z,76.20
2017-08-19T17:42:23.971Z,77.20
2017-08-19T17:44:51.501Z,80.00
2017-08-19T17:47:19.051Z,77.40
2017-08-19T17:49:46.700Z,80.00
2017-08-19T17:52:14.232Z,78.30
2017-08-19T17:54:41.776Z,78.90
2017-08-19T17:57:09.313Z,79.30
2017-08-19T17:59:36.854Z,79.80
2017-08-19T18:02:04.394Z,81.50
2017-08-19T18:04:31.964Z,81.80
2017-08-19T18:06:59.503Z,81.50
2017-08-19T18:09:27.064Z,82.40
2017-08-19T18:11:54.593Z,82.40
2017-08-19T18:14:22.140Z,87.10
2017-08-19T18:16:49.673Z,87.40
2017-08-19T18:19:17.228Z,86.30
2017-08-19T18:21:44.759Z,88.10
2017-08-19T18:24:12.298Z,88.10
2017-08-19T18:26:39.832Z,89.20
2017-08-19T18:29:07.393Z,88.20
2017-08-19T18:31:34.933Z,89.00
2017-08-19T18:34:02.494Z,88.40
2017-08-19T18:36:30.041Z,90.80
2017-08-19T18:38:57.612Z,86.90
2017-08-19T18:41:25.139Z,88.20
2017-08-19T18:43:52.706Z,88.70
2017-08-19T18:46:20.260Z,90.80
2017-08-19T18:48:47.793Z,88.40
2017-08-19T18:51:15.351Z,88.90
2017-08-19T18:53:42.879Z,90.60
2017-08-19T18:56:10.431Z,90.50
2017-08-19T18:58:37.979Z,89.20
2017-08-19T19:01:05.547Z,91.20
2017-08-19T19:03:33.082Z,93.10
2017-08-19T19:06:01.408Z,92.50
2017-08-19T19:08:28.930Z,92.50
2017-08-19T19:10:56.471Z,93.30
2017-08-19T19:13:23.999Z,93.70
2017-08-19T19:15:51.552Z,93.70
2017-08-19T19:18:19.087Z,94.00
2017-08-19T19:20:46.642Z,93.10
2017-08-19T19:23:14.180Z,93.20
2017-08-19T19:25:41.751Z,94.20
2017-08-19T19:28:09.285Z,95.30
2017-08-19T19:30:36.816Z,94.80
2017-08-19T19:33:04.372Z,94.70
2017-08-19T19:35:31.903Z,95.90
2017-08-19T19:37:59.456Z,97.40
2017-08-19T19:40:26.983Z,95.10
2017-08-19T19:42:54.533Z,97.10
2017-08-19T19:45:22.073Z,97.10
2017-08-19T19:47:49.620Z,97.10
2017-08-19T19:50:17.149Z,96.00
2017-08-19T19:52:44.701Z,96.90
2017-08-19T19:55:12.236Z,98.90
2017-08-19T19:57:39.819Z,99.90
2017-08-19T20:00:07.346Z,99.90
2017-08-19T20:02:34.890Z,99.90
2017-08-19T20:05:02.437Z,99.30
2017-08-19T20:07:29.988Z,97.80
2017-08-19T20:09:57.519Z,99.90
2017-08-19T20:12:25.065Z,99.90
2017-08-19T20:14:52.599Z,99.90
2017-08-19T20:17:20.150Z,99.90
2017-08-19T20:19:47.692Z,99.90
2017-08-19T20:22:15.220Z,99.90
2017-08-19T20:24:42.767Z,99.90
2017-08-19T20:27:10.292Z,99.90
2017-08-19T20:29:37.834Z,99.90
2017-08-19T20:32:05.361Z,99.90
2017-08-19T20:34:32.899Z,99.90
